createdAt,value
2022-08-31T00:00:17.049Z,100370.75
2022-08-31T00:03:02.632Z,100373.13
2022-08-31T00:05:29.586Z,100371.36
2022-08-31T00:07:56.739Z,100371.44
2022-08-31T00:10:32.202Z,100373.72
2022-08-31T00:13:04.665Z,100372.56
2022-08-31T00:15:34.379Z,100370.72
2022-08-31T00:18:01.323Z,100369.77
2022-08-31T00:20:33.506Z,100370.28
2022-08-31T00:23:06.586Z,100369.20
2022-08-31T00:25:34.593Z,100364.95
2022-08-31T00:28:02.328Z,100366.13
2022-08-31T00:30:29.887Z,100362.13
2022-08-31T00:32:57.113Z,100360.01
2022-08-31T00:35:30.233Z,100359.48
2022-08-31T00:37:57.903Z,100357.20
2022-08-31T00:40:25.431Z,100357.08
2022-08-31T00:42:52.511Z,100358.22
2022-08-31T00:45:19.460Z,100360.83
2022-08-31T00:47:46.816Z,100358.27
2022-08-31T00:50:15.824Z,100360.89
2022-08-31T00:52:45.786Z,100360.16
2022-08-31T00:55:16.224Z,100359.64
2022-08-31T00:57:43.922Z,100357.27
2022-08-31T01:00:13.955Z,100358.39
2022-08-31T01:02:40.930Z,100359.48
2022-08-31T01:05:08.764Z,100359.38
2022-08-31T01:07:35.911Z,100361.40
2022-08-31T01:10:03.280Z,100360.94
2022-08-31T01:12:30.265Z,100359.39
2022-08-31T01:14:57.306Z,100357.94
2022-08-31T01:17:24.253Z,100356.77
2022-08-31T01:20:21.378Z,100361.67
2022-08-31T01:22:57.440Z,100362.13
2022-08-31T01:25:24.393Z,100363.54
2022-08-31T01:28:00.555Z,100366.66
2022-08-31T01:30:27.509Z,100364.32
2022-08-31T01:32:54.668Z,100365.58
2022-08-31T01:35:21.709Z,100366.67
2022-08-31T01:37:48.760Z,100369.05
2022-08-31T01:40:16.382Z,100367.62
2022-08-31T01:42:43.586Z,100366.58
2022-08-31T01:45:10.999Z,100362.84
2022-08-31T01:47:39.733Z,100362.33
2022-08-31T01:50:07.533Z,100358.40
2022-08-31T01:52:36.139Z,100357.84
2022-08-31T01:55:05.443Z,100354.12
2022-08-31T01:57:33.949Z,100354.17
2022-08-31T02:00:06.579Z,100355.11
2022-08-31T02:02:33.655Z,100349.80
2022-08-31T02:05:00.752Z,100347.91
2022-08-31T02:07:27.725Z,100349.45
2022-08-31T02:09:55.668Z,100352.04
2022-08-31T02:12:23.230Z,100352.05
2022-08-31T02:14:50.182Z,100351.55
2022-08-31T02:17:17.332Z,100349.70
2022-08-31T02:19:44.181Z,100347.45
2022-08-31T02:22:11.056Z,100347.02
2022-08-31T02:24:38.486Z,100346.05
2022-08-31T02:27:06.050Z,100343.38
2022-08-31T02:29:33.510Z,100342.13
2022-08-31T02:32:00.385Z,100342.70
2022-08-31T02:34:28.324Z,100341.41
2022-08-31T02:36:55.865Z,100342.80
2022-08-31T02:39:24.376Z,100342.63
2022-08-31T02:41:51.829Z,100343.00
2022-08-31T02:44:18.978Z,100341.79
2022-08-31T02:46:46.067Z,100344.08
2022-08-31T02:49:13.796Z,100343.52
2022-08-31T02:51:41.884Z,100343.31
2022-08-31T02:54:08.924Z,100344.30
2022-08-31T02:56:35.779Z,100344.13
2022-08-31T02:59:02.823Z,100348.02
2022-08-31T03:01:30.035Z,100346.56
2022-08-31T03:03:57.241Z,100344.96
2022-08-31T03:06:24.402Z,100347.72
2022-08-31T03:08:51.449Z,100351.66
2022-08-31T03:11:18.909Z,100351.49
2022-08-31T03:13:46.162Z,100352.73
2022-08-31T03:16:13.926Z,100353.30
2022-08-31T03:18:40.995Z,100354.99
2022-08-31T03:21:07.951Z,100359.31
2022-08-31T03:23:34.895Z,100358.30
2022-08-31T03:26:01.941Z,100358.69
2022-08-31T03:28:28.884Z,100359.83
2022-08-31T03:30:55.971Z,100360.84
2022-08-31T03:33:22.902Z,100365.80
2022-08-31T03:35:51.152Z,100366.70
2022-08-31T03:38:17.928Z,100368.66
2022-08-31T03:40:45.071Z,100368.04
2022-08-31T03:43:12.978Z,100365.59
2022-08-31T03:45:40.755Z,100371.94
2022-08-31T03:48:12.179Z,100376.08
2022-08-31T03:50:40.112Z,100374.41
2022-08-31T03:53:07.670Z,100372.69
2022-08-31T03:55:35.183Z,100376.09
2022-08-31T03:58:02.279Z,100375.27
2022-08-31T04:00:30.452Z,100375.78
2022-08-31T04:03:00.046Z,100375.56
2022-08-31T04:05:31.152Z,100375.33
2022-08-31T04:07:58.185Z,100374.03
2022-08-31T04:10:25.415Z,100371.55
2022-08-31T04:12:52.359Z,100369.31
2022-08-31T04:15:20.639Z,100369.40
2022-08-31T04:17:48.308Z,100370.41
2022-08-31T04:20:17.719Z,100373.48
2022-08-31T04:22:45.797Z,100370.29
2022-08-31T04:25:12.749Z,100369.42
2022-08-31T04:27:45.229Z,100371.79
2022-08-31T04:30:12.727Z,100374.42
2022-08-31T04:32:39.749Z,100369.80
2022-08-31T04:35:08.605Z,100371.70
2022-08-31T04:37:35.693Z,100369.00
2022-08-31T04:40:05.227Z,100371.10
2022-08-31T04:42:32.363Z,100374.38
2022-08-31T04:44:59.312Z,100374.38
2022-08-31T04:47:26.364Z,100368.63
2022-08-31T04:49:53.933Z,100368.80
2022-08-31T04:52:24.667Z,100372.83
2022-08-31T04:54:55.846Z,100374.95
2022-08-31T04:57:22.774Z,100380.39
2022-08-31T04:59:49.621Z,100378.92
2022-08-31T05:02:16.807Z,100380.09
2022-08-31T05:04:44.345Z,100379.52
2022-08-31T05:07:11.704Z,100378.73
2022-08-31T05:09:38.758Z,100376.33
2022-08-31T05:12:05.806Z,100373.38
2022-08-31T05:14:32.654Z,100373.86
2022-08-31T05:17:01.758Z,100370.21
2022-08-31T05:19:29.321Z,100371.71
2022-08-31T05:21:56.686Z,100371.52
2022-08-31T05:24:24.827Z,100370.10
2022-08-31T05:26:53.865Z,100368.84
2022-08-31T05:29:22.877Z,100363.61
2022-08-31T05:31:52.423Z,100365.75
2022-08-31T05:34:21.038Z,100368.69
2022-08-31T05:36:51.296Z,100371.55
2022-08-31T05:39:18.207Z,100374.25
2022-08-31T05:41:45.951Z,100375.76
2022-08-31T05:44:12.922Z,100373.33
2022-08-31T05:46:40.005Z,100375.42
2022-08-31T05:49:07.753Z,100374.64
2022-08-31T05:51:38.624Z,100371.86
2022-08-31T05:54:07.764Z,100369.16
2022-08-31T05:56:35.940Z,100367.20
2022-08-31T05:59:03.289Z,100366.25
2022-08-31T06:01:32.134Z,100366.97
2022-08-31T06:03:59.429Z,100366.00
2022-08-31T06:06:26.711Z,100365.86
2022-08-31T06:08:55.860Z,100368.24
2022-08-31T06:11:26.599Z,100370.96
2022-08-31T06:13:54.318Z,100368.36
2022-08-31T06:16:21.664Z,100369.10
2022-08-31T06:18:51.554Z,100364.66
2022-08-31T06:21:23.311Z,100362.13
2022-08-31T06:23:51.081Z,100363.21
2022-08-31T06:26:20.236Z,100361.58
2022-08-31T06:28:48.826Z,100362.08
2022-08-31T06:31:27.986Z,100361.30
2022-08-31T06:33:56.177Z,100360.41
2022-08-31T06:36:25.899Z,100360.26
2022-08-31T06:38:53.144Z,100356.60
2022-08-31T06:41:22.651Z,100357.88
2022-08-31T06:43:49.600Z,100360.50
2022-08-31T06:46:17.902Z,100359.11
2022-08-31T06:48:45.649Z,100356.56
2022-08-31T06:51:13.725Z,100353.14
2022-08-31T06:53:42.549Z,100352.38
2022-08-31T06:56:20.127Z,100350.23
2022-08-31T06:58:48.811Z,100347.21
2022-08-31T07:01:35.032Z,100350.10
2022-08-31T07:04:09.015Z,100350.13
2022-08-31T07:06:41.391Z,100350.88
2022-08-31T07:09:10.215Z,100350.77
2022-08-31T07:11:44.355Z,100350.39
2022-08-31T07:14:15.082Z,100348.77
2022-08-31T07:16:43.058Z,100348.25
2022-08-31T07:19:10.062Z,100346.40
2022-08-31T07:21:42.441Z,100348.13
2022-08-31T07:24:10.423Z,100341.59
2022-08-31T07:26:48.951Z,100343.30
2022-08-31T07:29:19.113Z,100342.35
2022-08-31T07:31:47.555Z,100343.98
2022-08-31T07:34:14.793Z,100341.84
2022-08-31T07:37:01.101Z,100343.19
2022-08-31T07:39:47.299Z,100338.17
2022-08-31T07:42:16.022Z,100335.84
2022-08-31T07:44:43.037Z,100339.02
2022-08-31T07:47:22.032Z,100337.42
2022-08-31T07:49:51.579Z,100337.05
2022-08-31T07:52:31.734Z,100333.22
2022-08-31T07:55:05.153Z,100332.92
2022-08-31T07:57:38.165Z,100329.72
2022-08-31T08:00:09.211Z,100328.60
2022-08-31T08:02:40.429Z,100328.30
2022-08-31T08:05:11.246Z,100323.10
2022-08-31T08:07:39.726Z,100321.33
2022-08-31T08:10:14.697Z,100321.10
2022-08-31T08:12:42.945Z,100317.61
2022-08-31T08:15:10.458Z,100316.09
2022-08-31T08:17:38.273Z,100313.55
2022-08-31T08:20:11.664Z,100312.29
2022-08-31T08:22:54.237Z,100310.26
2022-08-31T08:25:25.809Z,100305.47
2022-08-31T08:27:54.803Z,100303.64
2022-08-31T08:30:22.405Z,100297.71
2022-08-31T08:32:49.874Z,100296.34
2022-08-31T08:35:17.013Z,100293.64
2022-08-31T08:38:07.010Z,100289.69
2022-08-31T08:40:42.849Z,100292.31
2022-08-31T08:43:16.307Z,100292.96
2022-08-31T08:45:44.510Z,100294.11
2022-08-31T08:48:13.884Z,100292.65
2022-08-31T08:50:41.110Z,100290.61
2022-08-31T08:53:12.690Z,100292.98
2022-08-31T08:55:41.427Z,100293.48
2022-08-31T08:58:13.551Z,100290.48
2022-08-31T09:00:46.821Z,100291.96
2022-08-31T09:03:31.149Z,100294.54
2022-08-31T09:06:09.911Z,100290.48
2022-08-31T09:08:43.952Z,100290.79
2022-08-31T09:11:24.144Z,100292.39
2022-08-31T09:14:30.312Z,100295.63
2022-08-31T09:17:17.225Z,100290.48
2022-08-31T09:20:03.842Z,100283.94
2022-08-31T09:22:35.186Z,100281.31
2022-08-31T09:25:06.253Z,100275.66
2022-08-31T09:28:08.090Z,100275.92
2022-08-31T09:30:52.600Z,100275.20
2022-08-31T09:33:23.690Z,100274.92
2022-08-31T09:35:58.558Z,100269.58
2022-08-31T09:38:40.414Z,100268.99
2022-08-31T09:41:23.443Z,100263.82
2022-08-31T09:43:50.994Z,100259.55
2022-08-31T09:46:29.848Z,100252.52
2022-08-31T09:48:58.615Z,100246.94
2022-08-31T09:51:28.365Z,100247.38
2022-08-31T09:54:26.288Z,100249.35
2022-08-31T09:56:58.764Z,100252.84
2022-08-31T09:59:48.125Z,100254.93
2022-08-31T10:02:23.218Z,100257.01
2022-08-31T10:05:06.710Z,100261.25
2022-08-31T10:07:44.199Z,100261.20
2022-08-31T10:10:28.128Z,100256.09
2022-08-31T10:13:04.535Z,100257.48
2022-08-31T10:15:39.897Z,100255.15
2022-08-31T10:18:26.348Z,100254.92
2022-08-31T10:21:09.471Z,100248.48
2022-08-31T10:24:08.977Z,100243.52
2022-08-31T10:26:47.097Z,100236.84
2022-08-31T10:29:23.361Z,100234.93
2022-08-31T10:31:52.475Z,100234.88
2022-08-31T10:34:41.450Z,100238.23
2022-08-31T10:37:31.794Z,100239.45
2022-08-31T10:40:00.753Z,100242.67
2022-08-31T10:42:37.671Z,100247.28
2022-08-31T10:45:18.446Z,100242.70
2022-08-31T10:47:49.167Z,100239.59
2022-08-31T10:50:30.899Z,100239.08
2022-08-31T10:53:26.490Z,100243.80
2022-08-31T10:56:18.417Z,100241.15
2022-08-31T10:59:07.680Z,100241.14
2022-08-31T11:01:48.959Z,100238.43
2022-08-31T11:04:29.579Z,100231.77
2022-08-31T11:07:00.673Z,100229.20
2022-08-31T11:09:55.358Z,100231.33
2022-08-31T11:12:33.474Z,100225.86
2022-08-31T11:15:29.103Z,100226.80
2022-08-31T11:18:25.615Z,100222.08
2022-08-31T11:21:00.546Z,100223.02
2022-08-31T11:23:42.369Z,100222.39
2022-08-31T11:26:36.520Z,100222.66
2022-08-31T11:29:29.576Z,100218.19
2022-08-31T11:32:21.504Z,100219.67
2022-08-31T11:34:51.628Z,100223.02
2022-08-31T11:37:53.090Z,100226.73
2022-08-31T11:40:44.203Z,100220.05
2022-08-31T11:43:15.637Z,100217.95
2022-08-31T11:45:43.167Z,100209.75
2022-08-31T11:49:02.258Z,100206.42
2022-08-31T11:51:41.742Z,100203.59
2022-08-31T11:54:15.293Z,100198.94
2022-08-31T11:56:45.536Z,100197.27
2022-08-31T11:59:39.086Z,100195.80
2022-08-31T12:02:24.542Z,100194.42
2022-08-31T12:05:03.225Z,100185.15
2022-08-31T12:07:35.039Z,100189.06
2022-08-31T12:10:34.684Z,100190.70
2022-08-31T12:13:18.889Z,100192.51
2022-08-31T12:16:09.612Z,100192.61
2022-08-31T12:18:38.608Z,100189.95
2022-08-31T12:22:02.620Z,100195.16
2022-08-31T12:24:49.249Z,100197.58
2022-08-31T12:27:25.766Z,100193.66
2022-08-31T12:29:53.810Z,100192.35
2022-08-31T12:32:23.751Z,100194.61
2022-08-31T12:35:14.047Z,100193.89
2022-08-31T12:37:41.092Z,100193.08
2022-08-31T12:40:15.393Z,100194.07
2022-08-31T12:42:59.351Z,100195.90
2022-08-31T12:45:54.137Z,100199.27
2022-08-31T12:48:27.364Z,100200.59
2022-08-31T12:51:00.365Z,100199.34
2022-08-31T12:53:49.086Z,100196.64
2022-08-31T12:56:48.730Z,100195.77
2022-08-31T12:59:45.726Z,100195.15
2022-08-31T13:02:16.706Z,100194.42
2022-08-31T13:04:47.536Z,100193.04
2022-08-31T13:07:29.748Z,100192.17
2022-08-31T13:10:09.793Z,100188.42
2022-08-31T13:12:37.047Z,100185.58
2022-08-31T13:15:05.358Z,100183.41
2022-08-31T13:17:37.905Z,100175.34
2022-08-31T13:20:07.819Z,100168.57
2022-08-31T13:22:40.312Z,100164.58
2022-08-31T13:25:32.849Z,100160.27
2022-08-31T13:27:59.995Z,100152.33
2022-08-31T13:30:27.661Z,100153.44
2022-08-31T13:32:55.044Z,100149.66
2022-08-31T13:35:25.035Z,100153.23
2022-08-31T13:38:06.421Z,100152.17
2022-08-31T13:40:37.523Z,100151.87
2022-08-31T13:43:09.399Z,100150.41
2022-08-31T13:45:40.779Z,100154.37
2022-08-31T13:48:13.433Z,100156.73
2022-08-31T13:50:52.502Z,100159.64
2022-08-31T13:53:43.024Z,100162.17
2022-08-31T13:56:42.813Z,100159.54
2022-08-31T13:59:26.965Z,100159.25
2022-08-31T14:01:54.321Z,100158.83
2022-08-31T14:04:48.989Z,100162.15
2022-08-31T14:07:44.124Z,100160.77
2022-08-31T14:10:20.289Z,100163.71
2022-08-31T14:13:21.222Z,100159.98
2022-08-31T14:15:56.345Z,100160.27
2022-08-31T14:18:28.689Z,100162.96
2022-08-31T14:21:26.644Z,100163.25
2022-08-31T14:24:05.073Z,100169.14
2022-08-31T14:26:41.826Z,100169.71
2022-08-31T14:29:12.212Z,100166.20
2022-08-31T14:31:53.673Z,100161.13
2022-08-31T14:34:35.118Z,100157.56
2022-08-31T14:37:06.463Z,100154.86
2022-08-31T14:39:37.443Z,100155.50
2022-08-31T14:42:07.282Z,100155.08
2022-08-31T14:44:41.661Z,100157.05
2022-08-31T14:47:09.938Z,100157.27
2022-08-31T14:49:38.098Z,100157.94
2022-08-31T14:52:06.703Z,100161.83
2022-08-31T14:54:37.331Z,100163.48
2022-08-31T14:57:16.128Z,100162.95
2022-08-31T14:59:44.320Z,100168.80
2022-08-31T15:02:12.992Z,100166.52
2022-08-31T15:04:45.543Z,100164.80
2022-08-31T15:07:13.427Z,100159.09
2022-08-31T15:09:42.674Z,100161.87
2022-08-31T15:12:14.746Z,100163.41
2022-08-31T15:14:45.278Z,100168.14
2022-08-31T15:17:19.228Z,100172.13
2022-08-31T15:19:48.387Z,100174.48
2022-08-31T15:22:17.552Z,100175.73
2022-08-31T15:24:47.091Z,100176.35
2022-08-31T15:27:15.786Z,100179.16
2022-08-31T15:29:43.453Z,100179.98
2022-08-31T15:32:10.564Z,100179.73
2022-08-31T15:34:37.860Z,100181.14
2022-08-31T15:37:06.344Z,100179.70
2022-08-31T15:39:35.829Z,100179.20
2022-08-31T15:42:09.156Z,100177.04
2022-08-31T15:44:37.983Z,100178.81
2022-08-31T15:47:25.060Z,100176.89
2022-08-31T15:49:52.112Z,100177.64
2022-08-31T15:52:19.260Z,100179.54
2022-08-31T15:54:46.928Z,100177.39
2022-08-31T15:57:16.235Z,100180.25
2022-08-31T15:59:43.905Z,100180.55
2022-08-31T16:02:13.101Z,100181.19
2022-08-31T16:04:43.126Z,100183.23
2022-08-31T16:07:11.612Z,100179.57
2022-08-31T16:09:44.836Z,100177.59
2022-08-31T16:12:16.235Z,100171.80
2022-08-31T16:14:46.998Z,100176.63
2022-08-31T16:17:20.184Z,100182.04
2022-08-31T16:19:49.534Z,100185.71
2022-08-31T16:22:19.087Z,100184.89
2022-08-31T16:24:47.165Z,100189.67
2022-08-31T16:27:16.431Z,100196.52
2022-08-31T16:29:43.704Z,100200.67
2022-08-31T16:32:10.795Z,100207.30
2022-08-31T16:34:39.589Z,100212.08
2022-08-31T16:37:07.954Z,100215.61
2022-08-31T16:39:36.328Z,100224.98
2022-08-31T16:42:06.357Z,100227.22
2022-08-31T16:44:36.806Z,100228.15
2022-08-31T16:47:05.321Z,100235.81
2022-08-31T16:49:36.413Z,100239.58
2022-08-31T16:52:06.850Z,100241.81
2022-08-31T16:54:34.445Z,100248.15
2022-08-31T16:57:01.432Z,100257.97
2022-08-31T16:59:29.091Z,100263.64
2022-08-31T17:01:57.402Z,100265.33
2022-08-31T17:04:48.547Z,100266.81
2022-08-31T17:07:14.080Z,100267.86
2022-08-31T17:09:41.435Z,100273.75
2022-08-31T17:12:13.408Z,100274.83
2022-08-31T17:14:51.431Z,100277.98
2022-08-31T17:17:20.699Z,100277.69
2022-08-31T17:19:47.688Z,100275.39
2022-08-31T17:22:23.258Z,100281.60
2022-08-31T17:24:57.846Z,100287.41
2022-08-31T17:27:25.799Z,100290.81
2022-08-31T17:29:53.969Z,100295.23
2022-08-31T17:32:23.938Z,100293.97
2022-08-31T17:34:52.082Z,100295.99
2022-08-31T17:37:27.935Z,100294.82
2022-08-31T17:39:55.628Z,100297.58
2022-08-31T17:42:23.697Z,100295.80
2022-08-31T17:44:52.290Z,100292.58
2022-08-31T17:47:20.624Z,100288.17
2022-08-31T17:49:47.807Z,100290.87
2022-08-31T17:52:14.756Z,100293.17
2022-08-31T17:54:43.482Z,100295.03
2022-08-31T17:57:13.146Z,100293.98
2022-08-31T17:59:41.806Z,100292.23
2022-08-31T18:02:13.239Z,100290.76
2022-08-31T18:04:41.136Z,100294.41
2022-08-31T18:07:09.349Z,100293.32
2022-08-31T18:09:44.438Z,100291.36
2022-08-31T18:12:11.811Z,100289.47
2022-08-31T18:14:39.793Z,100288.65
2022-08-31T18:17:08.762Z,100288.63
2022-08-31T18:19:36.127Z,100288.21
2022-08-31T18:22:04.098Z,100288.03
2022-08-31T18:24:35.637Z,100287.77
2022-08-31T18:27:07.446Z,100287.19
2022-08-31T18:29:35.811Z,100282.55
2022-08-31T18:32:04.359Z,100282.36
2022-08-31T18:34:33.336Z,100285.27
2022-08-31T18:37:00.757Z,100285.91
2022-08-31T18:39:51.515Z,100288.10
2022-08-31T18:42:38.348Z,100287.20
2022-08-31T18:45:17.098Z,100291.70
2022-08-31T18:48:01.580Z,100295.60
2022-08-31T18:50:37.327Z,100294.87
2022-08-31T18:53:10.802Z,100295.17
2022-08-31T18:55:42.751Z,100293.95
2022-08-31T18:58:10.418Z,100292.88
2022-08-31T19:00:40.481Z,100295.17
2022-08-31T19:03:07.745Z,100297.41
2022-08-31T19:05:38.479Z,100297.76
2022-08-31T19:08:05.490Z,100300.40
2022-08-31T19:10:32.357Z,100298.18
2022-08-31T19:13:01.504Z,100291.23
2022-08-31T19:15:35.226Z,100290.86
2022-08-31T19:18:05.639Z,100290.63
2022-08-31T19:20:33.632Z,100290.70
2022-08-31T19:23:01.048Z,100292.91
2022-08-31T19:25:28.479Z,100299.86
2022-08-31T19:27:56.345Z,100297.04
2022-08-31T19:30:28.074Z,100296.59
2022-08-31T19:32:56.698Z,100298.96
2022-08-31T19:35:27.170Z,100300.80
2022-08-31T19:37:55.570Z,100303.52
2022-08-31T19:40:23.209Z,100304.42
2022-08-31T19:45:43.210Z,100303.24
2022-08-31T19:48:13.618Z,100303.01
2022-08-31T19:50:42.361Z,100302.63
2022-08-31T19:53:13.419Z,100303.58
2022-08-31T19:55:50.255Z,100308.67
2022-08-31T19:58:18.116Z,100306.59
2022-08-31T20:00:45.268Z,100309.61
2022-08-31T20:03:16.212Z,100310.34
2022-08-31T20:05:43.704Z,100313.61
2022-08-31T20:08:11.137Z,100315.75
2022-08-31T20:10:42.395Z,100314.75
2022-08-31T20:13:10.268Z,100314.64
2022-08-31T20:15:41.221Z,100312.90
2022-08-31T20:18:11.457Z,100311.50
2022-08-31T20:20:45.353Z,100310.34
2022-08-31T20:23:17.010Z,100305.63
2022-08-31T20:25:45.086Z,100304.59
2022-08-31T20:28:12.353Z,100303.84
2022-08-31T20:30:40.838Z,100303.46
2022-08-31T20:33:08.493Z,100300.16
2022-08-31T20:35:36.526Z,100299.50
2022-08-31T20:38:03.618Z,100301.82
2022-08-31T20:40:30.615Z,100299.48
2022-08-31T20:42:58.139Z,100301.16
2022-08-31T20:45:25.293Z,100301.84
2022-08-31T20:48:10.879Z,100301.35
2022-08-31T20:50:40.281Z,100304.20
2022-08-31T20:53:07.876Z,100301.89
2022-08-31T20:55:36.434Z,100299.59
2022-08-31T20:58:04.332Z,100297.31
2022-08-31T21:00:32.824Z,100297.05
2022-08-31T21:03:00.719Z,100298.61
2022-08-31T21:05:39.062Z,100303.31
2022-08-31T21:08:06.340Z,100301.62
2022-08-31T21:10:37.230Z,100300.33
2022-08-31T21:13:07.200Z,100300.04
2022-08-31T21:15:34.253Z,100297.42
2022-08-31T21:18:01.711Z,100296.93
2022-08-31T21:20:29.073Z,100301.73
2022-08-31T21:22:55.946Z,100304.45
2022-08-31T21:25:23.378Z,100304.54
2022-08-31T21:27:50.329Z,100305.55
2022-08-31T21:30:18.953Z,100307.49
2022-08-31T21:32:47.096Z,100308.27
2022-08-31T21:35:17.014Z,100306.24
2022-08-31T21:37:44.170Z,100304.73
2022-08-31T21:40:12.278Z,100300.66
2022-08-31T21:42:40.115Z,100300.84
2022-08-31T21:45:07.890Z,100303.77
2022-08-31T21:47:34.830Z,100307.92
2022-08-31T21:50:01.832Z,100305.67
2022-08-31T21:52:29.090Z,100305.11
2022-08-31T21:54:56.604Z,100304.23
2022-08-31T21:57:25.086Z,100300.02
2022-08-31T21:59:52.032Z,100301.83
2022-08-31T22:02:20.035Z,100301.28
2022-08-31T22:04:47.258Z,100301.95
2022-08-31T22:07:14.959Z,100299.47
2022-08-31T22:09:43.472Z,100296.55
2022-08-31T22:12:15.207Z,100294.89
2022-08-31T22:14:44.892Z,100293.33
2022-08-31T22:17:13.272Z,100294.09
2022-08-31T22:19:41.452Z,100294.34
2022-08-31T22:22:11.988Z,100292.30
2022-08-31T22:24:40.218Z,100286.54
2022-08-31T22:27:08.579Z,100282.17
2022-08-31T22:29:36.617Z,100281.70
2022-08-31T22:32:08.776Z,100278.25
2022-08-31T22:34:37.294Z,100280.20
2022-08-31T22:37:04.754Z,100278.10
2022-08-31T22:39:31.803Z,100275.91
2022-08-31T22:41:59.167Z,100274.33
2022-08-31T22:44:27.885Z,100272.67
2022-08-31T22:46:57.276Z,100269.05
2022-08-31T22:49:25.133Z,100268.58
2022-08-31T22:51:52.287Z,100271.81
2022-08-31T22:54:19.542Z,100268.36
2022-08-31T22:56:47.108Z,100265.91
2022-08-31T22:59:17.816Z,100264.63
2022-08-31T23:01:47.677Z,100265.41
2022-08-31T23:04:20.429Z,100265.73
2022-08-31T23:06:49.484Z,100267.40
2022-08-31T23:09:16.711Z,100269.20
2022-08-31T23:11:43.659Z,100270.19
2022-08-31T23:14:10.709Z,100270.59
2022-08-31T23:16:40.401Z,100274.82
2022-08-31T23:19:19.390Z,100277.70
2022-08-31T23:21:52.554Z,100278.58
2022-08-31T23:24:23.831Z,100278.29
2022-08-31T23:26:53.315Z,100276.63
2022-08-31T23:29:22.010Z,100274.95
2022-08-31T23:31:49.063Z,100274.73
2022-08-31T23:34:16.528Z,100274.75
2022-08-31T23:36:47.783Z,100272.73
2022-08-31T23:39:19.035Z,100271.48
2022-08-31T23:41:47.314Z,100273.95
2022-08-31T23:44:15.081Z,100275.45
2022-08-31T23:46:43.454Z,100278.38
2022-08-31T23:49:11.544Z,100279.52
2022-08-31T23:51:38.597Z,100276.59
2022-08-31T23:54:08.224Z,100278.73
2022-08-31T23:56:37.440Z,100279.59
2022-08-31T23:59:09.579Z,100280.60
